sensor_id;sensor_type;location;lat;lon;timestamp;pressure;altitude;pressure_sealevel;temperature
20848;BMP180;10584;50.854;12.902;2023-12-20T00:00:55;97683.00;;;3.70
20848;BMP180;10584;50.854;12.902;2023-12-20T00:06:16;97691.00;;;3.80
20848;BMP180;10584;50.854;12.902;2023-12-20T00:11:38;97673.00;;;3.80
20848;BMP180;10584;50.854;12.902;2023-12-20T00:17:00;97673.00;;;3.90
20848;BMP180;10584;50.854;12.902;2023-12-20T00:22:21;97685.00;;;3.90
20848;BMP180;10584;50.854;12.902;2023-12-20T00:27:43;97670.00;;;3.80
20848;BMP180;10584;50.854;12.902;2023-12-20T00:33:05;97676.00;;;3.70
20848;BMP180;10584;50.854;12.902;2023-12-20T00:38:26;97672.00;;;3.70
20848;BMP180;10584;50.854;12.902;2023-12-20T00:43:48;97658.00;;;3.60
20848;BMP180;10584;50.854;12.902;2023-12-20T00:49:09;97653.00;;;3.70
20848;BMP180;10584;50.854;12.902;2023-12-20T00:54:31;97649.00;;;3.60
20848;BMP180;10584;50.854;12.902;2023-12-20T00:59:52;97646.00;;;3.60
20848;BMP180;10584;50.854;12.902;2023-12-20T01:05:14;97647.00;;;3.50
20848;BMP180;10584;50.854;12.902;2023-12-20T01:10:35;97634.00;;;3.50
20848;BMP180;10584;50.854;12.902;2023-12-20T01:15:57;97641.00;;;3.50
20848;BMP180;10584;50.854;12.902;2023-12-20T01:21:18;97629.00;;;3.50
20848;BMP180;10584;50.854;12.902;2023-12-20T01:26:40;97624.00;;;3.50
20848;BMP180;10584;50.854;12.902;2023-12-20T01:32:01;97635.00;;;3.50
20848;BMP180;10584;50.854;12.902;2023-12-20T01:37:23;97632.00;;;3.50
20848;BMP180;10584;50.854;12.902;2023-12-20T01:42:46;97619.00;;;3.40
20848;BMP180;10584;50.854;12.902;2023-12-20T01:48:08;97620.00;;;3.30
20848;BMP180;10584;50.854;12.902;2023-12-20T01:53:33;97615.00;;;3.30
20848;BMP180;10584;50.854;12.902;2023-12-20T01:58:56;97613.00;;;3.40
20848;BMP180;10584;50.854;12.902;2023-12-20T02:04:18;97607.00;;;3.30
20848;BMP180;10584;50.854;12.902;2023-12-20T02:09:41;97602.00;;;3.30
20848;BMP180;10584;50.854;12.902;2023-12-20T02:15:02;97590.00;;;3.20
20848;BMP180;10584;50.854;12.902;2023-12-20T02:20:24;97593.00;;;3.30
20848;BMP180;10584;50.854;12.902;2023-12-20T02:25:45;97595.00;;;3.30
20848;BMP180;10584;50.854;12.902;2023-12-20T02:31:07;97590.00;;;3.20
20848;BMP180;10584;50.854;12.902;2023-12-20T02:36:28;97578.00;;;3.20
20848;BMP180;10584;50.854;12.902;2023-12-20T02:41:50;97572.00;;;3.20
20848;BMP180;10584;50.854;12.902;2023-12-20T02:47:11;97581.00;;;3.30
20848;BMP180;10584;50.854;12.902;2023-12-20T02:52:33;97576.00;;;3.20
20848;BMP180;10584;50.854;12.902;2023-12-20T02:57:54;97568.00;;;3.20
20848;BMP180;10584;50.854;12.902;2023-12-20T03:03:16;97587.00;;;3.30
20848;BMP180;10584;50.854;12.902;2023-12-20T03:08:38;97571.00;;;3.20
20848;BMP180;10584;50.854;12.902;2023-12-20T03:13:59;97569.00;;;3.30
20848;BMP180;10584;50.854;12.902;2023-12-20T03:19:21;97568.00;;;3.20
20848;BMP180;10584;50.854;12.902;2023-12-20T03:24:43;97564.00;;;3.30
20848;BMP180;10584;50.854;12.902;2023-12-20T03:30:05;97561.00;;;3.20
20848;BMP180;10584;50.854;12.902;2023-12-20T03:35:27;97567.00;;;3.30
20848;BMP180;10584;50.854;12.902;2023-12-20T03:40:48;97550.00;;;3.20
20848;BMP180;10584;50.854;12.902;2023-12-20T03:46:10;97557.00;;;3.30
20848;BMP180;10584;50.854;12.902;2023-12-20T03:51:31;97567.00;;;3.30
20848;BMP180;10584;50.854;12.902;2023-12-20T03:56:53;97558.00;;;3.40
20848;BMP180;10584;50.854;12.902;2023-12-20T04:02:14;97556.00;;;3.40
20848;BMP180;10584;50.854;12.902;2023-12-20T04:07:37;97561.00;;;3.30
20848;BMP180;10584;50.854;12.902;2023-12-20T04:12:59;97564.00;;;3.30
20848;BMP180;10584;50.854;12.902;2023-12-20T04:18:20;97559.00;;;3.20
20848;BMP180;10584;50.854;12.902;2023-12-20T04:23:42;97550.00;;;3.30
20848;BMP180;10584;50.854;12.902;2023-12-20T04:29:03;97556.00;;;3.20
20848;BMP180;10584;50.854;12.902;2023-12-20T04:34:25;97546.00;;;3.30
20848;BMP180;10584;50.854;12.902;2023-12-20T04:39:47;97557.00;;;3.20
20848;BMP180;10584;50.854;12.902;2023-12-20T04:45:09;97574.00;;;3.30
20848;BMP180;10584;50.854;12.902;2023-12-20T04:50:30;97556.00;;;3.20
20848;BMP180;10584;50.854;12.902;2023-12-20T04:55:52;97570.00;;;3.20
20848;BMP180;10584;50.854;12.902;2023-12-20T05:01:13;97578.00;;;3.20
20848;BMP180;10584;50.854;12.902;2023-12-20T05:06:35;97575.00;;;3.20
20848;BMP180;10584;50.854;12.902;2023-12-20T05:11:57;97591.00;;;3.20
20848;BMP180;10584;50.854;12.902;2023-12-20T05:17:18;97598.00;;;3.20
20848;BMP180;10584;50.854;12.902;2023-12-20T05:22:41;97585.00;;;3.40
20848;BMP180;10584;50.854;12.902;2023-12-20T05:28:03;97593.00;;;3.40
20848;BMP180;10584;50.854;12.902;2023-12-20T05:33:25;97590.00;;;3.60
20848;BMP180;10584;50.854;12.902;2023-12-20T05:38:46;97592.00;;;3.60
20848;BMP180;10584;50.854;12.902;2023-12-20T05:44:08;97594.00;;;3.60
20848;BMP180;10584;50.854;12.902;2023-12-20T05:49:29;97602.00;;;3.60
20848;BMP180;10584;50.854;12.902;2023-12-20T05:54:51;97607.00;;;3.50
20848;BMP180;10584;50.854;12.902;2023-12-20T06:00:14;97608.00;;;3.50
20848;BMP180;10584;50.854;12.902;2023-12-20T06:05:35;97610.00;;;3.60
20848;BMP180;10584;50.854;12.902;2023-12-20T06:11:03;97623.00;;;3.60
20848;BMP180;10584;50.854;12.902;2023-12-20T06:16:24;97634.00;;;3.70
20848;BMP180;10584;50.854;12.902;2023-12-20T06:21:46;97642.00;;;3.70
20848;BMP180;10584;50.854;12.902;2023-12-20T06:27:07;97644.00;;;3.80
20848;BMP180;10584;50.854;12.902;2023-12-20T06:32:29;97633.00;;;3.70
20848;BMP180;10584;50.854;12.902;2023-12-20T06:37:51;97634.00;;;3.90
20848;BMP180;10584;50.854;12.902;2023-12-20T06:43:13;97648.00;;;3.80
20848;BMP180;10584;50.854;12.902;2023-12-20T06:48:52;97650.00;;;3.90
20848;BMP180;10584;50.854;12.902;2023-12-20T06:54:14;97646.00;;;4.00
20848;BMP180;10584;50.854;12.902;2023-12-20T06:59:39;97651.00;;;3.90
20848;BMP180;10584;50.854;12.902;2023-12-20T07:05:01;97661.00;;;3.80
20848;BMP180;10584;50.854;12.902;2023-12-20T07:10:22;97663.00;;;3.80
20848;BMP180;10584;50.854;12.902;2023-12-20T07:15:44;97659.00;;;3.80
20848;BMP180;10584;50.854;12.902;2023-12-20T07:21:05;97665.00;;;4.00
20848;BMP180;10584;50.854;12.902;2023-12-20T07:26:29;97671.00;;;3.90
20848;BMP180;10584;50.854;12.902;2023-12-20T07:31:50;97681.00;;;3.90
20848;BMP180;10584;50.854;12.902;2023-12-20T07:37:13;97673.00;;;3.80
20848;BMP180;10584;50.854;12.902;2023-12-20T07:42:35;97672.00;;;4.00
20848;BMP180;10584;50.854;12.902;2023-12-20T07:47:56;97671.00;;;3.80
20848;BMP180;10584;50.854;12.902;2023-12-20T07:53:18;97668.00;;;4.00
20848;BMP180;10584;50.854;12.902;2023-12-20T07:58:40;97675.00;;;3.90
20848;BMP180;10584;50.854;12.902;2023-12-20T08:04:12;97683.00;;;3.90
20848;BMP180;10584;50.854;12.902;2023-12-20T08:09:34;97682.00;;;3.80
20848;BMP180;10584;50.854;12.902;2023-12-20T08:14:58;97676.00;;;3.90
20848;BMP180;10584;50.854;12.902;2023-12-20T08:20:19;97682.00;;;3.90
20848;BMP180;10584;50.854;12.902;2023-12-20T08:25:50;97690.00;;;4.10
20848;BMP180;10584;50.854;12.902;2023-12-20T08:31:16;97684.00;;;3.90
20848;BMP180;10584;50.854;12.902;2023-12-20T08:36:38;97687.00;;;3.90
20848;BMP180;10584;50.854;12.902;2023-12-20T08:41:59;97687.00;;;3.90
20848;BMP180;10584;50.854;12.902;2023-12-20T08:47:21;97674.00;;;3.80
20848;BMP180;10584;50.854;12.902;2023-12-20T08:52:42;97682.00;;;3.80
20848;BMP180;10584;50.854;12.902;2023-12-20T08:58:04;97694.00;;;3.80
20848;BMP180;10584;50.854;12.902;2023-12-20T09:03:28;97684.00;;;3.90
20848;BMP180;10584;50.854;12.902;2023-12-20T09:08:49;97683.00;;;4.10
20848;BMP180;10584;50.854;12.902;2023-12-20T09:14:11;97691.00;;;4.40
20848;BMP180;10584;50.854;12.902;2023-12-20T09:19:32;97682.00;;;4.50
20848;BMP180;10584;50.854;12.902;2023-12-20T09:24:54;97681.00;;;4.60
20848;BMP180;10584;50.854;12.902;2023-12-20T09:30:16;97677.00;;;4.70
20848;BMP180;10584;50.854;12.902;2023-12-20T09:35:48;97685.00;;;4.90
20848;BMP180;10584;50.854;12.902;2023-12-20T09:41:11;97683.00;;;4.90
20848;BMP180;10584;50.854;12.902;2023-12-20T09:46:35;97677.00;;;4.90
20848;BMP180;10584;50.854;12.902;2023-12-20T09:51:58;97675.00;;;4.80
20848;BMP180;10584;50.854;12.902;2023-12-20T09:57:21;97669.00;;;4.60
20848;BMP180;10584;50.854;12.902;2023-12-20T10:02:58;97659.00;;;4.60
20848;BMP180;10584;50.854;12.902;2023-12-20T10:08:21;97648.00;;;4.50
20848;BMP180;10584;50.854;12.902;2023-12-20T10:13:47;97637.00;;;4.60
20848;BMP180;10584;50.854;12.902;2023-12-20T10:19:08;97620.00;;;4.50
20848;BMP180;10584;50.854;12.902;2023-12-20T10:24:30;97623.00;;;4.40
20848;BMP180;10584;50.854;12.902;2023-12-20T10:29:52;97616.00;;;4.60
20848;BMP180;10584;50.854;12.902;2023-12-20T10:35:14;97611.00;;;4.90
20848;BMP180;10584;50.854;12.902;2023-12-20T10:40:36;97602.00;;;5.10
20848;BMP180;10584;50.854;12.902;2023-12-20T10:46:00;97599.00;;;5.20
20848;BMP180;10584;50.854;12.902;2023-12-20T10:51:23;97598.00;;;5.50
20848;BMP180;10584;50.854;12.902;2023-12-20T10:56:45;97595.00;;;5.70
20848;BMP180;10584;50.854;12.902;2023-12-20T11:02:07;97586.00;;;5.80
20848;BMP180;10584;50.854;12.902;2023-12-20T11:07:50;97590.00;;;5.50
20848;BMP180;10584;50.854;12.902;2023-12-20T11:18:42;97590.00;;;5.30
20848;BMP180;10584;50.854;12.902;2023-12-20T11:24:04;97596.00;;;5.20
20848;BMP180;10584;50.854;12.902;2023-12-20T11:29:34;97594.00;;;5.00
20848;BMP180;10584;50.854;12.902;2023-12-20T11:40:27;97584.00;;;5.10
20848;BMP180;10584;50.854;12.902;2023-12-20T11:45:50;97582.00;;;5.10
20848;BMP180;10584;50.854;12.902;2023-12-20T11:51:13;97577.00;;;5.30
20848;BMP180;10584;50.854;12.902;2023-12-20T11:56:36;97563.00;;;5.30
20848;BMP180;10584;50.854;12.902;2023-12-20T12:01:58;97555.00;;;5.30
20848;BMP180;10584;50.854;12.902;2023-12-20T12:07:23;97561.00;;;5.20
20848;BMP180;10584;50.854;12.902;2023-12-20T12:12:44;97550.00;;;5.20
20848;BMP180;10584;50.854;12.902;2023-12-20T12:18:06;97542.00;;;5.20
20848;BMP180;10584;50.854;12.902;2023-12-20T12:23:28;97533.00;;;5.20
20848;BMP180;10584;50.854;12.902;2023-12-20T12:28:51;97515.00;;;5.30
20848;BMP180;10584;50.854;12.902;2023-12-20T12:34:13;97516.00;;;5.40
20848;BMP180;10584;50.854;12.902;2023-12-20T12:39:34;97502.00;;;5.40
20848;BMP180;10584;50.854;12.902;2023-12-20T12:44:56;97487.00;;;5.40
20848;BMP180;10584;50.854;12.902;2023-12-20T12:50:18;97481.00;;;5.50
20848;BMP180;10584;50.854;12.902;2023-12-20T12:55:40;97459.00;;;5.70
20848;BMP180;10584;50.854;12.902;2023-12-20T13:01:02;97466.00;;;5.80
20848;BMP180;10584;50.854;12.902;2023-12-20T13:06:25;97458.00;;;5.90
20848;BMP180;10584;50.854;12.902;2023-12-20T13:11:47;97453.00;;;5.90
20848;BMP180;10584;50.854;12.902;2023-12-20T13:17:09;97453.00;;;5.70
20848;BMP180;10584;50.854;12.902;2023-12-20T13:22:31;97435.00;;;5.60
20848;BMP180;10584;50.854;12.902;2023-12-20T13:27:54;97428.00;;;5.70
20848;BMP180;10584;50.854;12.902;2023-12-20T13:33:16;97428.00;;;5.60
20848;BMP180;10584;50.854;12.902;2023-12-20T13:38:37;97405.00;;;5.70
20848;BMP180;10584;50.854;12.902;2023-12-20T13:43:59;97422.00;;;5.60
20848;BMP180;10584;50.854;12.902;2023-12-20T13:49:22;97414.00;;;5.50
20848;BMP180;10584;50.854;12.902;2023-12-20T13:54:47;97430.00;;;5.40
20848;BMP180;10584;50.854;12.902;2023-12-20T14:00:09;97423.00;;;5.60
20848;BMP180;10584;50.854;12.902;2023-12-20T14:05:36;97418.00;;;5.50
20848;BMP180;10584;50.854;12.902;2023-12-20T14:10:58;97429.00;;;5.30
20848;BMP180;10584;50.854;12.902;2023-12-20T14:16:20;97410.00;;;5.30
20848;BMP180;10584;50.854;12.902;2023-12-20T14:21:42;97417.00;;;5.20
20848;BMP180;10584;50.854;12.902;2023-12-20T14:27:10;97416.00;;;5.10
20848;BMP180;10584;50.854;12.902;2023-12-20T14:32:34;97424.00;;;5.10
20848;BMP180;10584;50.854;12.902;2023-12-20T14:37:55;97410.00;;;5.10
20848;BMP180;10584;50.854;12.902;2023-12-20T14:43:17;97417.00;;;5.10
20848;BMP180;10584;50.854;12.902;2023-12-20T14:48:39;97425.00;;;5.00
20848;BMP180;10584;50.854;12.902;2023-12-20T14:54:01;97430.00;;;5.00
20848;BMP180;10584;50.854;12.902;2023-12-20T14:59:23;97428.00;;;4.90
20848;BMP180;10584;50.854;12.902;2023-12-20T15:04:44;97407.00;;;4.80
20848;BMP180;10584;50.854;12.902;2023-12-20T15:10:06;97426.00;;;4.80
20848;BMP180;10584;50.854;12.902;2023-12-20T15:15:28;97424.00;;;4.70
20848;BMP180;10584;50.854;12.902;2023-12-20T15:20:50;97421.00;;;4.60
20848;BMP180;10584;50.854;12.902;2023-12-20T15:26:11;97418.00;;;4.50
20848;BMP180;10584;50.854;12.902;2023-12-20T15:31:33;97424.00;;;4.50
20848;BMP180;10584;50.854;12.902;2023-12-20T15:36:55;97427.00;;;4.50
20848;BMP180;10584;50.854;12.902;2023-12-20T15:42:16;97419.00;;;4.40
20848;BMP180;10584;50.854;12.902;2023-12-20T15:47:38;97406.00;;;4.40
20848;BMP180;10584;50.854;12.902;2023-12-20T15:52:59;97423.00;;;4.50
20848;BMP180;10584;50.854;12.902;2023-12-20T15:58:21;97409.00;;;4.40
20848;BMP180;10584;50.854;12.902;2023-12-20T16:03:43;97405.00;;;4.40
20848;BMP180;10584;50.854;12.902;2023-12-20T16:09:14;97411.00;;;4.40
20848;BMP180;10584;50.854;12.902;2023-12-20T16:14:37;97421.00;;;4.50
20848;BMP180;10584;50.854;12.902;2023-12-20T16:19:59;97416.00;;;4.40
20848;BMP180;10584;50.854;12.902;2023-12-20T16:25:20;97417.00;;;4.50
20848;BMP180;10584;50.854;12.902;2023-12-20T16:30:42;97391.00;;;4.40
20848;BMP180;10584;50.854;12.902;2023-12-20T16:36:04;97411.00;;;4.50
20848;BMP180;10584;50.854;12.902;2023-12-20T16:41:26;97405.00;;;4.60
20848;BMP180;10584;50.854;12.902;2023-12-20T16:46:48;97414.00;;;4.60
20848;BMP180;10584;50.854;12.902;2023-12-20T16:52:09;97415.00;;;4.60
20848;BMP180;10584;50.854;12.902;2023-12-20T16:57:31;97417.00;;;4.60
20848;BMP180;10584;50.854;12.902;2023-12-20T17:02:53;97420.00;;;4.60
20848;BMP180;10584;50.854;12.902;2023-12-20T17:08:14;97423.00;;;4.70
20848;BMP180;10584;50.854;12.902;2023-12-20T17:13:36;97426.00;;;4.70
20848;BMP180;10584;50.854;12.902;2023-12-20T17:18:57;97414.00;;;4.70
20848;BMP180;10584;50.854;12.902;2023-12-20T17:24:19;97409.00;;;4.80
20848;BMP180;10584;50.854;12.902;2023-12-20T17:29:41;97411.00;;;4.80
20848;BMP180;10584;50.854;12.902;2023-12-20T17:35:03;97420.00;;;4.80
20848;BMP180;10584;50.854;12.902;2023-12-20T17:40:24;97426.00;;;4.90
20848;BMP180;10584;50.854;12.902;2023-12-20T17:45:46;97433.00;;;4.80
20848;BMP180;10584;50.854;12.902;2023-12-20T17:51:07;97412.00;;;4.80
20848;BMP180;10584;50.854;12.902;2023-12-20T17:56:29;97424.00;;;4.70
20848;BMP180;10584;50.854;12.902;2023-12-20T18:01:51;97423.00;;;4.70
20848;BMP180;10584;50.854;12.902;2023-12-20T18:07:15;97422.00;;;4.70
20848;BMP180;10584;50.854;12.902;2023-12-20T18:12:36;97420.00;;;4.70
20848;BMP180;10584;50.854;12.902;2023-12-20T18:17:58;97425.00;;;4.70
20848;BMP180;10584;50.854;12.902;2023-12-20T18:23:19;97442.00;;;4.50
20848;BMP180;10584;50.854;12.902;2023-12-20T18:28:43;97448.00;;;4.60
20848;BMP180;10584;50.854;12.902;2023-12-20T18:34:05;97442.00;;;4.60
20848;BMP180;10584;50.854;12.902;2023-12-20T18:39:29;97436.00;;;4.50
20848;BMP180;10584;50.854;12.902;2023-12-20T18:44:51;97430.00;;;4.40
20848;BMP180;10584;50.854;12.902;2023-12-20T18:50:12;97439.00;;;4.40
20848;BMP180;10584;50.854;12.902;2023-12-20T18:55:34;97444.00;;;4.50
20848;BMP180;10584;50.854;12.902;2023-12-20T19:00:55;97435.00;;;4.40
20848;BMP180;10584;50.854;12.902;2023-12-20T19:06:18;97430.00;;;4.40
20848;BMP180;10584;50.854;12.902;2023-12-20T19:11:42;97419.00;;;4.40
20848;BMP180;10584;50.854;12.902;2023-12-20T19:17:03;97423.00;;;4.40
20848;BMP180;10584;50.854;12.902;2023-12-20T19:22:30;97410.00;;;4.30
20848;BMP180;10584;50.854;12.902;2023-12-20T19:28:02;97406.00;;;4.30
20848;BMP180;10584;50.854;12.902;2023-12-20T19:33:36;97387.00;;;4.30
20848;BMP180;10584;50.854;12.902;2023-12-20T19:39:09;97391.00;;;4.20
20848;BMP180;10584;50.854;12.902;2023-12-20T19:44:33;97384.00;;;4.30
20848;BMP180;10584;50.854;12.902;2023-12-20T19:49:58;97393.00;;;4.20
20848;BMP180;10584;50.854;12.902;2023-12-20T19:55:20;97382.00;;;4.10
20848;BMP180;10584;50.854;12.902;2023-12-20T20:00:42;97375.00;;;4.20
20848;BMP180;10584;50.854;12.902;2023-12-20T20:06:15;97350.00;;;4.20
20848;BMP180;10584;50.854;12.902;2023-12-20T20:11:40;97350.00;;;4.20
20848;BMP180;10584;50.854;12.902;2023-12-20T20:17:11;97342.00;;;4.20
20848;BMP180;10584;50.854;12.902;2023-12-20T20:22:37;97354.00;;;4.20
20848;BMP180;10584;50.854;12.902;2023-12-20T20:28:06;97346.00;;;4.20
20848;BMP180;10584;50.854;12.902;2023-12-20T20:33:36;97336.00;;;4.20
20848;BMP180;10584;50.854;12.902;2023-12-20T20:39:00;97349.00;;;4.20
20848;BMP180;10584;50.854;12.902;2023-12-20T20:44:25;97340.00;;;4.20
20848;BMP180;10584;50.854;12.902;2023-12-20T20:49:46;97317.00;;;4.30
20848;BMP180;10584;50.854;12.902;2023-12-20T20:55:08;97325.00;;;4.40
20848;BMP180;10584;50.854;12.902;2023-12-20T21:00:30;97322.00;;;4.40
20848;BMP180;10584;50.854;12.902;2023-12-20T21:05:53;97332.00;;;4.40
20848;BMP180;10584;50.854;12.902;2023-12-20T21:11:14;97307.00;;;4.40
20848;BMP180;10584;50.854;12.902;2023-12-20T21:16:40;97287.00;;;4.40
20848;BMP180;10584;50.854;12.902;2023-12-20T21:22:05;97284.00;;;4.50
20848;BMP180;10584;50.854;12.902;2023-12-20T21:27:27;97284.00;;;4.40
20848;BMP180;10584;50.854;12.902;2023-12-20T21:33:01;97287.00;;;4.50
20848;BMP180;10584;50.854;12.902;2023-12-20T21:38:28;97272.00;;;4.50
20848;BMP180;10584;50.854;12.902;2023-12-20T21:43:50;97263.00;;;4.50
20848;BMP180;10584;50.854;12.902;2023-12-20T21:49:14;97255.00;;;4.50
20848;BMP180;10584;50.854;12.902;2023-12-20T21:54:37;97230.00;;;4.50
20848;BMP180;10584;50.854;12.902;2023-12-20T21:59:58;97230.00;;;4.60
20848;BMP180;10584;50.854;12.902;2023-12-20T22:05:22;97232.00;;;4.60
20848;BMP180;10584;50.854;12.902;2023-12-20T22:10:50;97211.00;;;4.50
20848;BMP180;10584;50.854;12.902;2023-12-20T22:16:14;97208.00;;;4.60
20848;BMP180;10584;50.854;12.902;2023-12-20T22:21:37;97208.00;;;4.50
20848;BMP180;10584;50.854;12.902;2023-12-20T22:27:04;97199.00;;;4.40
20848;BMP180;10584;50.854;12.902;2023-12-20T22:32:25;97181.00;;;4.50
20848;BMP180;10584;50.854;12.902;2023-12-20T22:37:50;97168.00;;;4.50
20848;BMP180;10584;50.854;12.902;2023-12-20T22:43:17;97152.00;;;4.50
20848;BMP180;10584;50.854;12.902;2023-12-20T22:48:43;97134.00;;;4.50
20848;BMP180;10584;50.854;12.902;2023-12-20T22:54:10;97113.00;;;4.50
20848;BMP180;10584;50.854;12.902;2023-12-20T22:59:35;97110.00;;;4.60
20848;BMP180;10584;50.854;12.902;2023-12-20T23:05:00;97084.00;;;4.60
20848;BMP180;10584;50.854;12.902;2023-12-20T23:10:22;97084.00;;;4.60
20848;BMP180;10584;50.854;12.902;2023-12-20T23:15:50;97068.00;;;4.60
20848;BMP180;10584;50.854;12.902;2023-12-20T23:21:15;97045.00;;;4.50
20848;BMP180;10584;50.854;12.902;2023-12-20T23:26:41;97050.00;;;4.50
20848;BMP180;10584;50.854;12.902;2023-12-20T23:32:03;97035.00;;;4.60
20848;BMP180;10584;50.854;12.902;2023-12-20T23:37:25;97028.00;;;4.60
20848;BMP180;10584;50.854;12.902;2023-12-20T23:42:47;97027.00;;;4.70
20848;BMP180;10584;50.854;12.902;2023-12-20T23:48:09;97007.00;;;4.70
20848;BMP180;10584;50.854;12.902;2023-12-20T23:53:34;97008.00;;;4.70
20848;BMP180;10584;50.854;12.902;2023-12-20T23:58:57;96998.00;;;4.70
